createdAt,value
2018-06-28T00:00:46.326Z,101654.34
2018-06-28T00:02:51.090Z,101656.14
2018-06-28T00:04:55.868Z,101656.94
2018-06-28T00:07:00.574Z,101652.81
2018-06-28T00:09:08.075Z,101650.27
2018-06-28T00:11:13.337Z,101652.62
2018-06-28T00:13:17.989Z,101654.25
2018-06-28T00:15:22.708Z,101660.42
2018-06-28T00:17:27.610Z,101658.23
2018-06-28T00:19:32.317Z,101659.40
2018-06-28T00:21:37.081Z,101657.36
2018-06-28T00:23:41.766Z,101658.01
2018-06-28T00:25:46.552Z,101663.48
2018-06-28T00:27:51.195Z,101658.56
2018-06-28T00:29:55.834Z,101661.16
2018-06-28T00:32:00.478Z,101661.98
2018-06-28T00:34:05.318Z,101654.02
2018-06-28T00:36:10.090Z,101659.91
2018-06-28T00:38:14.835Z,101659.34
2018-06-28T00:40:19.554Z,101659.81
2018-06-28T00:42:24.282Z,101657.53
2018-06-28T00:44:29.253Z,101658.69
2018-06-28T00:46:33.951Z,101655.95
2018-06-28T00:48:38.708Z,101634.70
2018-06-28T00:50:43.491Z,101635.59
2018-06-28T00:52:48.210Z,101656.05
2018-06-28T00:54:53.047Z,101655.44
2018-06-28T00:56:57.891Z,101657.41
2018-06-28T00:59:03.090Z,101660.69
2018-06-28T01:01:08.223Z,101664.95
2018-06-28T01:03:12.940Z,101658.10
2018-06-28T01:05:17.694Z,101659.25
2018-06-28T01:07:22.443Z,101652.62
2018-06-28T01:09:27.201Z,101654.01
2018-06-28T01:11:31.886Z,101657.02
2018-06-28T01:13:36.576Z,101650.63
2018-06-28T01:15:41.328Z,101651.59
2018-06-28T01:17:46.082Z,101647.14
2018-06-28T01:19:50.809Z,101645.53
2018-06-28T01:21:55.750Z,101648.54
2018-06-28T01:24:00.497Z,101648.30
2018-06-28T01:26:05.401Z,101658.52
2018-06-28T01:28:10.155Z,101647.63
2018-06-28T01:30:14.810Z,101627.57
2018-06-28T01:32:19.476Z,101656.24
2018-06-28T01:34:24.203Z,101617.36
2018-06-28T01:36:29.003Z,101649.97
2018-06-28T01:38:33.810Z,101657.17
2018-06-28T01:40:38.744Z,101651.83
2018-06-28T01:42:59.941Z,101649.95
2018-06-28T01:45:04.974Z,101655.81
2018-06-28T01:47:09.811Z,101642.17
2018-06-28T01:49:14.558Z,101651.09
2018-06-28T01:51:19.307Z,101654.45
2018-06-28T01:53:24.045Z,101652.44
2018-06-28T01:55:28.962Z,101643.77
2018-06-28T01:57:33.698Z,101648.39
2018-06-28T01:59:38.509Z,101647.56
2018-06-28T02:01:43.361Z,101646.94
2018-06-28T02:03:48.407Z,101615.00
2018-06-28T02:05:53.609Z,101631.23
2018-06-28T02:07:58.447Z,101622.00
2018-06-28T02:10:03.213Z,101614.42
2018-06-28T02:12:07.961Z,101648.02
2018-06-28T02:14:12.732Z,101654.95
2018-06-28T02:16:17.600Z,101655.84
2018-06-28T02:18:22.446Z,101622.67
2018-06-28T02:20:27.227Z,101652.55
2018-06-28T02:22:31.968Z,101656.73
2018-06-28T02:24:36.850Z,101652.92
2018-06-28T02:26:41.594Z,101649.63
2018-06-28T02:28:46.397Z,101648.04
2018-06-28T02:30:51.366Z,101651.75
2018-06-28T02:32:56.105Z,101648.42
2018-06-28T02:35:00.747Z,101648.52
2018-06-28T02:37:05.499Z,101648.98
2018-06-28T02:39:10.382Z,101651.98
2018-06-28T02:41:15.028Z,101652.52
2018-06-28T02:43:19.750Z,101647.95
2018-06-28T02:45:24.536Z,101652.66
2018-06-28T02:47:29.277Z,101659.02
2018-06-28T02:49:34.121Z,101656.72
2018-06-28T02:51:38.899Z,101653.89
2018-06-28T02:53:43.739Z,101657.42
2018-06-28T02:55:48.842Z,101652.19
2018-06-28T02:57:53.655Z,101651.37
2018-06-28T02:59:58.659Z,101654.31
2018-06-28T03:02:03.478Z,101653.42
2018-06-28T03:04:08.372Z,101651.59
2018-06-28T03:06:12.721Z,101654.83
2018-06-28T03:08:17.438Z,101657.53
2018-06-28T03:10:22.155Z,101642.00
2018-06-28T03:12:26.858Z,101659.35
2018-06-28T03:14:31.536Z,101656.77
2018-06-28T03:16:36.174Z,101661.94
2018-06-28T03:18:40.889Z,101659.23
2018-06-28T03:20:45.571Z,101659.05
2018-06-28T03:22:50.223Z,101663.17
2018-06-28T03:24:55.042Z,101664.50
2018-06-28T03:26:59.790Z,101661.56
2018-06-28T03:29:04.619Z,101660.09
2018-06-28T03:31:09.452Z,101659.34
2018-06-28T03:33:14.237Z,101652.22
2018-06-28T03:35:19.263Z,101658.99
2018-06-28T03:37:24.072Z,101641.24
2018-06-28T03:39:28.837Z,101648.81
2018-06-28T03:41:33.638Z,101654.73
2018-06-28T03:43:38.332Z,101650.23
2018-06-28T03:45:43.077Z,101655.94
2018-06-28T03:47:48.004Z,101651.80
2018-06-28T03:49:53.180Z,101653.51
2018-06-28T03:51:57.960Z,101646.98
2018-06-28T03:54:02.698Z,101599.30
2018-06-28T03:56:07.453Z,101656.22
2018-06-28T03:58:12.143Z,101657.16
2018-06-28T04:00:16.815Z,101655.88
2018-06-28T04:02:21.507Z,101649.69
2018-06-28T04:04:26.219Z,101650.28
2018-06-28T04:06:30.932Z,101652.93
2018-06-28T04:08:35.686Z,101651.41
2018-06-28T04:10:40.498Z,101650.06
2018-06-28T04:12:45.316Z,101651.77
2018-06-28T04:14:50.149Z,101654.00
2018-06-28T04:16:54.935Z,101657.41
2018-06-28T04:18:59.978Z,101661.77
2018-06-28T04:21:04.789Z,101655.30
2018-06-28T04:23:09.663Z,101663.00
2018-06-28T04:25:14.315Z,101660.30
2018-06-28T04:27:19.101Z,101660.77
2018-06-28T04:29:23.941Z,101659.53
2018-06-28T04:31:28.800Z,101663.42
2018-06-28T04:33:34.118Z,101664.89
2018-06-28T04:35:38.867Z,101669.78
2018-06-28T04:37:43.726Z,101670.31
2018-06-28T04:39:48.819Z,101667.42
2018-06-28T04:41:54.011Z,101654.95
2018-06-28T04:43:58.777Z,101667.64
2018-06-28T04:46:03.613Z,101667.05
2018-06-28T04:48:08.850Z,101666.09
2018-06-28T04:50:13.832Z,101625.55
2018-06-28T04:52:18.656Z,101632.90
2018-06-28T04:54:23.631Z,101669.84
2018-06-28T04:56:28.665Z,101635.98
2018-06-28T04:58:33.561Z,101670.46
2018-06-28T05:00:39.962Z,101670.98
2018-06-28T05:02:44.878Z,101667.69
2018-06-28T05:04:49.789Z,101672.31
2018-06-28T05:06:54.566Z,101665.23
2018-06-28T05:08:59.558Z,101660.36
2018-06-28T05:11:04.531Z,101642.58
2018-06-28T05:13:09.789Z,101667.36
2018-06-28T05:15:14.537Z,101664.05
2018-06-28T05:17:19.275Z,101661.78
2018-06-28T05:19:24.050Z,101661.00
2018-06-28T05:21:29.166Z,101649.12
2018-06-28T05:23:33.919Z,101663.03
2018-06-28T05:25:38.762Z,101639.55
2018-06-28T05:27:43.685Z,101661.73
2018-06-28T05:29:48.464Z,101664.75
2018-06-28T05:31:53.628Z,101660.08
2018-06-28T05:33:58.446Z,101663.61
2018-06-28T05:36:03.309Z,101668.02
2018-06-28T05:38:08.157Z,101668.84
2018-06-28T05:40:13.086Z,101644.73
2018-06-28T05:42:18.112Z,101653.36
2018-06-28T05:44:22.787Z,101659.11
2018-06-28T05:46:27.742Z,101654.84
2018-06-28T05:48:32.890Z,101657.02
2018-06-28T05:50:37.779Z,101658.20
2018-06-28T05:52:42.527Z,101659.47
2018-06-28T05:54:47.693Z,101656.61
2018-06-28T05:56:52.613Z,101625.50
2018-06-28T05:59:00.037Z,101653.09
2018-06-28T06:01:05.683Z,101639.42
2018-06-28T06:03:10.433Z,101653.14
2018-06-28T06:05:15.230Z,101655.13
2018-06-28T06:07:20.138Z,101619.69
2018-06-28T06:09:25.028Z,101652.58
2018-06-28T06:11:30.058Z,101650.13
2018-06-28T06:13:34.840Z,101646.97
2018-06-28T06:15:39.611Z,101658.19
2018-06-28T06:17:44.642Z,101656.86
2018-06-28T06:19:49.830Z,101660.98
2018-06-28T06:21:54.730Z,101656.45
2018-06-28T06:23:59.990Z,101460.27
2018-06-28T06:26:04.797Z,101653.70
2018-06-28T06:28:10.059Z,101542.66
2018-06-28T06:30:14.903Z,101657.52
2018-06-28T06:32:19.963Z,101660.44
2018-06-28T06:34:24.944Z,101665.88
2018-06-28T06:36:29.889Z,101667.48
2018-06-28T06:38:34.797Z,101664.27
2018-06-28T06:40:39.731Z,101661.98
2018-06-28T06:42:44.627Z,101662.13
2018-06-28T06:44:49.687Z,101661.38
2018-06-28T06:46:54.582Z,101662.63
2018-06-28T06:48:59.454Z,101661.56
2018-06-28T06:51:04.470Z,101645.22
2018-06-28T06:53:09.309Z,101661.91
2018-06-28T06:55:14.509Z,101667.82
2018-06-28T06:57:19.426Z,101663.67
2018-06-28T06:59:24.418Z,101665.46
2018-06-28T07:01:30.581Z,101662.02
2018-06-28T07:03:35.896Z,101664.82
2018-06-28T07:05:40.670Z,101625.84
2018-06-28T07:07:45.456Z,101666.27
2018-06-28T07:09:50.498Z,101667.56
2018-06-28T07:11:55.359Z,101666.39
2018-06-28T07:14:00.225Z,101646.72
2018-06-28T07:16:05.286Z,101668.89
2018-06-28T07:18:10.008Z,101667.71
2018-06-28T07:20:14.842Z,101663.16
2018-06-28T07:22:19.725Z,101671.92
2018-06-28T07:24:24.774Z,101656.83
2018-06-28T07:26:30.145Z,101597.77
2018-06-28T07:28:35.105Z,101670.44
2018-06-28T07:30:40.006Z,101677.55
2018-06-28T07:32:44.969Z,101658.39
2018-06-28T07:34:50.100Z,101678.94
2018-06-28T07:36:55.169Z,101617.98
2018-06-28T07:39:00.535Z,101673.86
2018-06-28T07:41:05.764Z,101674.91
2018-06-28T07:43:11.468Z,101399.47
2018-06-28T07:45:16.511Z,101670.41
2018-06-28T07:47:21.388Z,101675.55
2018-06-28T07:49:26.340Z,101679.19
2018-06-28T07:51:32.191Z,101593.81
2018-06-28T07:53:37.248Z,101681.17
2018-06-28T07:55:42.464Z,101485.52
2018-06-28T07:57:47.688Z,101677.68
2018-06-28T07:59:52.591Z,101510.50
2018-06-28T08:01:57.355Z,101681.69
2018-06-28T08:04:02.193Z,101680.27
2018-06-28T08:06:07.617Z,101634.02
2018-06-28T08:08:12.545Z,101645.91
2018-06-28T08:10:17.483Z,101651.89
2018-06-28T08:12:23.326Z,101431.62
2018-06-28T08:14:28.593Z,101685.28
2018-06-28T08:16:33.906Z,101571.03
2018-06-28T08:18:39.420Z,101683.58
2018-06-28T08:20:44.334Z,101678.42
2018-06-28T08:22:50.196Z,101554.38
2018-06-28T08:24:55.620Z,101681.82
2018-06-28T08:27:00.725Z,101687.58
2018-06-28T08:29:05.821Z,101605.11
2018-06-28T08:31:11.347Z,101681.59
2018-06-28T08:33:16.622Z,101679.53
2018-06-28T08:35:21.646Z,101682.67
2018-06-28T08:37:26.924Z,101684.85
2018-06-28T08:39:31.997Z,101659.41
2018-06-28T08:41:37.622Z,101687.16
2018-06-28T08:43:42.851Z,101691.27
2018-06-28T08:45:47.806Z,101690.00
2018-06-28T08:47:52.623Z,101687.34
2018-06-28T08:49:57.393Z,101684.07
2018-06-28T08:52:02.547Z,101650.02
2018-06-28T08:54:07.389Z,101679.72
2018-06-28T08:56:12.289Z,101654.61
2018-06-28T08:58:18.384Z,101667.47
2018-06-28T09:00:23.497Z,101672.80
2018-06-28T09:02:28.366Z,101660.50
2018-06-28T09:04:33.474Z,101633.63
2018-06-28T09:06:39.264Z,101672.84
2018-06-28T09:08:44.700Z,101671.13
2018-06-28T09:10:49.487Z,101678.93
2018-06-28T09:12:54.358Z,101619.72
2018-06-28T09:14:59.253Z,101666.73
2018-06-28T09:17:04.025Z,101631.95
2018-06-28T09:19:08.919Z,101663.69
2018-06-28T09:21:13.767Z,101665.06
2018-06-28T09:23:19.451Z,101671.23
2018-06-28T09:25:24.361Z,101636.05
2018-06-28T09:27:29.124Z,101667.77
2018-06-28T09:29:34.067Z,101620.59
2018-06-28T09:31:38.946Z,101649.89
2018-06-28T09:33:44.081Z,101661.33
2018-06-28T09:35:48.899Z,101659.20
2018-06-28T09:37:53.608Z,101631.62
2018-06-28T09:39:58.423Z,101655.72
2018-06-28T09:42:03.488Z,101658.34
2018-06-28T09:44:08.329Z,101655.58
2018-06-28T09:46:13.232Z,101642.19
2018-06-28T09:48:18.073Z,101649.61
2018-06-28T09:50:22.972Z,101638.72
2018-06-28T09:52:27.847Z,101635.77
2018-06-28T09:54:33.412Z,101570.95
2018-06-28T09:56:38.210Z,101643.28
2018-06-28T09:58:43.236Z,101643.80
2018-06-28T10:00:48.190Z,101640.73
2018-06-28T10:02:52.952Z,101640.27
2018-06-28T10:04:57.688Z,101638.07
2018-06-28T10:07:02.750Z,101632.38
2018-06-28T10:09:09.503Z,101621.07
2018-06-28T10:11:14.306Z,101632.86
2018-06-28T10:13:19.047Z,101627.18
2018-06-28T10:15:23.896Z,101621.54
2018-06-28T10:17:28.714Z,101625.81
2018-06-28T10:19:33.454Z,101619.31
2018-06-28T10:21:38.305Z,101626.28
2018-06-28T10:23:43.170Z,101621.50
2018-06-28T10:25:47.945Z,101611.48
2018-06-28T10:27:52.646Z,101617.27
2018-06-28T10:29:57.473Z,101615.53
2018-06-28T10:32:02.253Z,101541.55
2018-06-28T10:34:06.974Z,101613.80
2018-06-28T10:36:11.769Z,101598.55
2018-06-28T10:38:16.640Z,101604.70
2018-06-28T10:40:21.567Z,101606.44
2018-06-28T10:42:26.468Z,101598.98
2018-06-28T10:44:31.253Z,101585.45
2018-06-28T10:46:36.022Z,101593.81
2018-06-28T10:48:40.945Z,101589.00
2018-06-28T10:50:45.745Z,101554.41
2018-06-28T10:52:50.623Z,101586.37
2018-06-28T10:54:55.480Z,101582.87
2018-06-28T10:57:00.590Z,101582.89
2018-06-28T10:59:06.142Z,101593.42
2018-06-28T11:01:11.121Z,101485.32
2018-06-28T11:03:16.050Z,101583.77
2018-06-28T11:05:21.082Z,101590.75
2018-06-28T11:07:26.003Z,101582.05
2018-06-28T11:09:30.826Z,101580.72
2018-06-28T11:11:36.075Z,101584.23
2018-06-28T11:13:41.005Z,101458.54
2018-06-28T11:15:46.221Z,101572.83
2018-06-28T11:17:50.997Z,101575.88
2018-06-28T11:19:55.839Z,101568.45
2018-06-28T11:22:00.640Z,101553.14
2018-06-28T11:24:05.541Z,101521.18
2018-06-28T11:26:10.325Z,101564.08
2018-06-28T11:28:15.304Z,101561.88
2018-06-28T11:30:20.101Z,101558.39
2018-06-28T11:32:24.785Z,101558.84
2018-06-28T11:34:29.539Z,101553.14
2018-06-28T11:36:35.159Z,101539.58
2018-06-28T11:38:40.050Z,101558.82
2018-06-28T11:40:45.033Z,101553.57
2018-06-28T11:42:50.008Z,101558.83
2018-06-28T11:44:55.469Z,101551.41
2018-06-28T11:47:00.209Z,101545.27
2018-06-28T11:49:05.248Z,101477.47
2018-06-28T11:51:10.107Z,101519.89
2018-06-28T11:53:15.085Z,101541.77
2018-06-28T11:55:20.219Z,101536.52
2018-06-28T11:57:25.059Z,101530.81
2018-06-28T11:59:29.901Z,101528.61
2018-06-28T12:01:34.881Z,101515.05
2018-06-28T12:03:39.783Z,101526.38
2018-06-28T12:05:44.601Z,101519.84
2018-06-28T12:07:49.613Z,101517.65
2018-06-28T12:09:54.370Z,101509.36
2018-06-28T12:11:59.223Z,101508.47
2018-06-28T12:14:04.189Z,101513.66
2018-06-28T12:16:08.958Z,101510.14
2018-06-28T12:18:13.932Z,101510.06
2018-06-28T12:20:19.019Z,101504.39
2018-06-28T12:22:23.936Z,101505.70
2018-06-28T12:24:28.675Z,101502.19
2018-06-28T12:26:33.589Z,101504.41
2018-06-28T12:28:38.362Z,101496.95
2018-06-28T12:30:43.174Z,101489.44
2018-06-28T12:32:48.168Z,101484.64
2018-06-28T12:34:52.983Z,101488.39
2018-06-28T12:36:57.777Z,101478.30
2018-06-28T12:39:06.589Z,101400.95
2018-06-28T12:41:11.333Z,101481.78
2018-06-28T12:43:16.200Z,101435.09
2018-06-28T12:45:21.053Z,101475.98
2018-06-28T12:47:58.604Z,101482.98
2018-06-28T12:50:03.740Z,101473.36
2018-06-28T12:52:25.087Z,101453.17
2018-06-28T12:54:29.892Z,101472.62
2018-06-28T12:56:36.031Z,101482.37
2018-06-28T12:58:40.838Z,101449.67
2018-06-28T13:00:45.684Z,101475.14
2018-06-28T13:02:50.471Z,101470.34
2018-06-28T13:04:55.237Z,101471.27
2018-06-28T13:07:00.101Z,101462.55
2018-06-28T13:09:11.039Z,101457.66
2018-06-28T13:11:15.935Z,101461.13
2018-06-28T13:13:20.678Z,101457.55
2018-06-28T13:15:25.561Z,101464.24
2018-06-28T13:17:30.475Z,101457.09
2018-06-28T13:19:35.315Z,101417.32
2018-06-28T13:21:40.244Z,101443.61
2018-06-28T13:23:45.375Z,101433.99
2018-06-28T13:25:50.239Z,101445.25
2018-06-28T13:27:55.108Z,101439.44
2018-06-28T13:29:59.962Z,101397.50
2018-06-28T13:32:04.928Z,101430.33
2018-06-28T13:34:09.897Z,101414.92
2018-06-28T13:36:14.728Z,101438.64
2018-06-28T13:38:19.467Z,101427.23
2018-06-28T13:40:24.229Z,101425.88
2018-06-28T13:42:29.074Z,101413.41
2018-06-28T13:44:34.358Z,101410.64
2018-06-28T13:46:39.211Z,101417.56
2018-06-28T13:48:44.099Z,101406.92
2018-06-28T13:50:49.459Z,101411.15
2018-06-28T13:52:54.602Z,101410.70
2018-06-28T13:54:59.492Z,101416.48
2018-06-28T13:57:04.345Z,101405.71
2018-06-28T13:59:09.169Z,101387.22
2018-06-28T14:01:14.322Z,101399.94
2018-06-28T14:03:21.960Z,101400.32
2018-06-28T14:05:29.336Z,101382.41
2018-06-28T14:07:36.660Z,101387.84
2018-06-28T14:09:41.403Z,101383.34
2018-06-28T14:11:46.208Z,101388.16
2018-06-28T14:13:51.007Z,101390.87
2018-06-28T14:15:55.880Z,101386.53
2018-06-28T14:18:01.655Z,101385.20
2018-06-28T14:20:08.502Z,101379.92
2018-06-28T14:22:13.461Z,101368.02
2018-06-28T14:24:18.262Z,101375.02
2018-06-28T14:26:23.324Z,101370.56
2018-06-28T14:28:28.016Z,101368.38
2018-06-28T14:30:32.984Z,101369.64
2018-06-28T14:32:37.795Z,101366.44
2018-06-28T14:34:42.728Z,101368.13
2018-06-28T14:36:47.585Z,101375.44
2018-06-28T14:38:52.591Z,101346.02
2018-06-28T14:40:57.387Z,101368.86
2018-06-28T14:43:02.383Z,101368.05
2018-06-28T14:45:07.863Z,101364.70
2018-06-28T14:47:12.750Z,101357.64
2018-06-28T14:49:17.528Z,101351.74
2018-06-28T14:51:22.333Z,101366.16
2018-06-28T14:53:27.026Z,101362.92
2018-06-28T14:55:32.090Z,101375.36
2018-06-28T14:57:36.876Z,101363.23
2018-06-28T14:59:41.566Z,101357.93
2018-06-28T15:01:46.382Z,101350.42
2018-06-28T15:03:51.204Z,101359.31
2018-06-28T15:05:56.136Z,101346.59
2018-06-28T15:08:01.176Z,101251.86
2018-06-28T15:10:06.116Z,101341.00
2018-06-28T15:12:11.006Z,101301.77
2018-06-28T15:14:15.800Z,101318.01
2018-06-28T15:16:20.746Z,101327.34
2018-06-28T15:18:25.610Z,101335.49
2018-06-28T15:20:30.550Z,101334.27
2018-06-28T15:22:35.329Z,101320.84
2018-06-28T15:24:40.236Z,101321.09
2018-06-28T15:26:45.069Z,101317.94
2018-06-28T15:28:49.819Z,101332.98
2018-06-28T15:30:54.661Z,101322.81
2018-06-28T15:32:59.405Z,101301.50
2018-06-28T15:35:04.376Z,101315.55
2018-06-28T15:37:09.155Z,101316.19
2018-06-28T15:39:13.972Z,101314.91
2018-06-28T15:41:31.456Z,101322.26
2018-06-28T15:43:36.325Z,101315.75
2018-06-28T15:45:41.344Z,101299.84
2018-06-28T15:47:46.065Z,101314.52
2018-06-28T15:49:50.887Z,101312.65
2018-06-28T15:51:55.650Z,101317.05
2018-06-28T15:54:01.488Z,101313.31
2018-06-28T15:56:06.535Z,101304.41
2018-06-28T15:58:11.956Z,101304.66
2018-06-28T16:00:16.973Z,101299.14
2018-06-28T16:02:21.970Z,101301.16
2018-06-28T16:04:26.763Z,101307.17
2018-06-28T16:06:31.590Z,101307.52
2018-06-28T16:08:36.516Z,101306.20
2018-06-28T16:10:41.327Z,101303.91
2018-06-28T16:12:46.264Z,101306.47
2018-06-28T16:14:51.128Z,101300.70
2018-06-28T16:16:55.951Z,101291.69
2018-06-28T16:19:01.350Z,101259.98
2018-06-28T16:21:06.552Z,101305.39
2018-06-28T16:23:11.356Z,101300.00
2018-06-28T16:25:16.176Z,101304.54
2018-06-28T16:29:32.140Z,101309.34
2018-06-28T16:31:36.993Z,101299.80
2018-06-28T16:33:41.883Z,101309.85
2018-06-28T16:35:46.642Z,101309.94
2018-06-28T16:37:51.464Z,101295.02
2018-06-28T16:39:56.273Z,101303.33
2018-06-28T16:42:02.090Z,101294.77
2018-06-28T16:44:07.158Z,101305.66
2018-06-28T16:46:11.977Z,101308.39
2018-06-28T16:48:16.746Z,101298.03
2018-06-28T16:50:21.568Z,101306.77
2018-06-28T16:52:27.793Z,101298.72
2018-06-28T16:54:32.699Z,101310.20
2018-06-28T16:56:37.478Z,101305.75
2018-06-28T16:58:42.454Z,101305.84
2018-06-28T17:00:47.505Z,101303.11
2018-06-28T17:02:53.452Z,101295.70
2018-06-28T17:04:58.291Z,101297.22
2018-06-28T17:07:04.144Z,101303.77
2018-06-28T17:09:11.201Z,101303.16
2018-06-28T17:13:12.599Z,101293.09
2018-06-28T17:15:17.821Z,101267.47
2018-06-28T17:17:22.887Z,101296.28
2018-06-28T17:19:27.935Z,101296.58
2018-06-28T17:21:32.880Z,101290.45
2018-06-28T17:23:37.746Z,101265.48
2018-06-28T17:25:42.570Z,101295.20
2018-06-28T17:27:47.626Z,101288.06
2018-06-28T17:29:52.438Z,101293.70
2018-06-28T17:31:57.534Z,101292.18
2018-06-28T17:34:02.476Z,101295.28
2018-06-28T17:36:13.732Z,101287.97
2018-06-28T17:38:18.609Z,101288.42
2018-06-28T17:40:23.722Z,101292.75
2018-06-28T17:42:28.721Z,101263.28
2018-06-28T17:44:33.988Z,101278.54
2018-06-28T17:46:39.967Z,101288.06
2018-06-28T17:48:46.789Z,101289.77
2018-06-28T17:50:51.682Z,101289.59
2018-06-28T17:52:56.712Z,101258.88
2018-06-28T17:55:02.129Z,101287.36
2018-06-28T17:57:07.310Z,101065.36
2018-06-28T17:59:12.131Z,101271.31
2018-06-28T18:01:16.891Z,101282.31
2018-06-28T18:03:22.334Z,101250.36
2018-06-28T18:05:28.112Z,101287.81
2018-06-28T18:07:33.393Z,101215.36
2018-06-28T18:09:38.763Z,101287.16
2018-06-28T18:11:43.845Z,101283.05
2018-06-28T18:13:48.954Z,101259.89
2018-06-28T18:15:54.058Z,101292.00
2018-06-28T18:17:58.946Z,101281.37
2018-06-28T18:20:03.951Z,101283.05
2018-06-28T18:22:09.326Z,101288.27
2018-06-28T18:24:14.222Z,101278.25
2018-06-28T18:26:19.907Z,101282.17
2018-06-28T18:28:25.706Z,101262.89
2018-06-28T18:30:32.745Z,101281.72
2018-06-28T18:32:40.035Z,101279.11
2018-06-28T18:34:47.077Z,101263.53
2018-06-28T18:36:54.892Z,101273.59
2018-06-28T18:39:02.081Z,101274.89
2018-06-28T18:41:10.201Z,101282.52
2018-06-28T18:43:17.234Z,101278.21
2018-06-28T18:45:23.983Z,101271.58
2018-06-28T18:47:31.121Z,101271.91
2018-06-28T18:49:38.023Z,101271.14
2018-06-28T18:51:45.250Z,101271.30
2018-06-28T18:53:52.090Z,101244.11
2018-06-28T18:56:00.226Z,101268.66
2018-06-28T18:58:07.380Z,101278.66
2018-06-28T19:00:14.796Z,101272.13
2018-06-28T19:02:22.869Z,101252.08
2018-06-28T19:04:31.820Z,101276.50
2018-06-28T19:06:41.110Z,101284.86
2018-06-28T19:08:49.806Z,101280.10
2018-06-28T19:10:56.819Z,101279.75
2018-06-28T19:13:03.980Z,101274.53
2018-06-28T19:17:17.990Z,101255.36
2018-06-28T19:19:23.614Z,101279.88
2018-06-28T19:21:33.784Z,101273.77
2018-06-28T19:23:43.812Z,101281.17
2018-06-28T19:25:49.041Z,101272.47
2018-06-28T19:27:54.001Z,101240.58
2018-06-28T19:32:07.013Z,101280.74
2018-06-28T19:34:12.663Z,101279.88
2018-06-28T19:36:17.858Z,101273.33
2018-06-28T19:38:23.553Z,101282.51
2018-06-28T19:40:33.429Z,101282.95
2018-06-28T19:42:58.225Z,101281.16
2018-06-28T19:45:03.459Z,101240.52
2018-06-28T19:47:08.367Z,101293.38
2018-06-28T19:49:19.003Z,101292.45
2018-06-28T19:51:29.148Z,101290.70
2018-06-28T19:53:34.102Z,101299.41
2018-06-28T19:55:39.110Z,101295.92
2018-06-28T19:57:44.543Z,101302.48
2018-06-28T19:59:49.397Z,101304.19
2018-06-28T20:02:01.491Z,101301.13
2018-06-28T20:04:13.652Z,101281.78
2018-06-28T20:06:18.605Z,101305.89
2018-06-28T20:08:24.889Z,101306.77
2018-06-28T20:10:30.546Z,101316.22
2018-06-28T20:12:40.719Z,101322.34
2018-06-28T20:14:50.672Z,101300.01
2018-06-28T20:17:00.549Z,101318.34
2018-06-28T20:19:10.620Z,101297.73
2018-06-28T20:21:16.666Z,101315.66
2018-06-28T20:23:21.740Z,101317.82
2018-06-28T20:25:27.475Z,101304.23
2018-06-28T20:27:38.097Z,101322.14
2018-06-28T20:29:48.670Z,101293.64
2018-06-28T20:31:58.842Z,101313.84
2018-06-28T20:34:10.125Z,101317.23
2018-06-28T20:36:15.698Z,101318.94
2018-06-28T20:38:20.982Z,101315.02
2018-06-28T20:40:27.789Z,101312.82
2018-06-28T20:42:32.800Z,101320.11
2018-06-28T20:44:37.892Z,101321.85
2018-06-28T20:46:43.138Z,101320.92
2018-06-28T20:48:48.412Z,101314.30
2018-06-28T20:50:53.919Z,101311.23
2018-06-28T20:52:58.760Z,101306.37
2018-06-28T20:55:03.893Z,101319.53
2018-06-28T20:57:09.132Z,101322.11
2018-06-28T20:59:14.037Z,101322.53
2018-06-28T21:01:19.885Z,101326.88
2018-06-28T21:03:25.181Z,101176.12
2018-06-28T21:05:30.219Z,101302.69
2018-06-28T21:07:35.112Z,101326.30
2018-06-28T21:09:40.128Z,101321.00
2018-06-28T21:11:45.186Z,101256.94
2018-06-28T21:13:50.073Z,101328.68
2018-06-28T21:15:55.103Z,101327.42
2018-06-28T21:17:59.977Z,101329.53
2018-06-28T21:20:05.295Z,101054.03
2018-06-28T21:22:10.498Z,101146.06
2018-06-28T21:24:15.414Z,101314.04
2018-06-28T21:26:45.605Z,101324.47
2018-06-28T21:28:52.901Z,101324.41
2018-06-28T21:30:58.625Z,101277.08
2018-06-28T21:33:04.090Z,101284.00
2018-06-28T21:35:09.585Z,101328.63
2018-06-28T21:37:15.009Z,101306.38
2018-06-28T21:41:43.747Z,101326.95
2018-06-28T21:43:53.492Z,101335.14
2018-06-28T21:46:02.360Z,101328.67
2018-06-28T21:48:08.475Z,101331.58
2018-06-28T21:50:14.720Z,101331.66
2018-06-28T21:52:22.608Z,101334.23
2018-06-28T21:54:28.209Z,101336.89
2018-06-28T21:56:33.534Z,101332.47
2018-06-28T21:58:40.949Z,101339.74
2018-06-28T22:00:47.844Z,101315.55
2018-06-28T22:02:53.987Z,101336.39
2018-06-28T22:05:00.478Z,101334.62
2018-06-28T22:07:05.821Z,101338.63
2018-06-28T22:09:47.275Z,101333.22
2018-06-28T22:11:54.036Z,101326.23
2018-06-28T22:14:02.374Z,101325.70
2018-06-28T22:16:10.412Z,101326.91
2018-06-28T22:18:20.804Z,101324.68
2018-06-28T22:20:26.949Z,101326.80
2018-06-28T22:22:35.106Z,101331.05
2018-06-28T22:24:46.218Z,101328.97
2018-06-28T22:26:51.388Z,101327.13
2018-06-28T22:28:56.279Z,101330.12
2018-06-28T22:31:01.298Z,101326.21
2018-06-28T22:33:06.345Z,101333.94
2018-06-28T22:35:11.746Z,101335.23
2018-06-28T22:37:17.079Z,101336.95
2018-06-28T22:39:21.908Z,101337.38
2018-06-28T22:41:26.738Z,101341.02
2018-06-28T22:43:31.508Z,101337.70
2018-06-28T22:45:36.242Z,101342.13
2018-06-28T22:47:40.955Z,101280.95
2018-06-28T22:49:46.454Z,101342.37
2018-06-28T22:51:51.285Z,101338.28
2018-06-28T22:53:56.098Z,101320.38
2018-06-28T22:56:01.057Z,101340.99
2018-06-28T22:58:05.811Z,101329.52
2018-06-28T23:00:10.642Z,101336.55
2018-06-28T23:02:15.489Z,101333.84
2018-06-28T23:04:20.343Z,101335.92
2018-06-28T23:06:25.324Z,101336.77
2018-06-28T23:08:32.599Z,101338.34
2018-06-28T23:10:37.384Z,101332.59
2018-06-28T23:12:42.301Z,101338.20
2018-06-28T23:14:46.653Z,101346.39
2018-06-28T23:16:51.393Z,101339.08
2018-06-28T23:18:56.145Z,101338.58
2018-06-28T23:21:01.111Z,101314.64
2018-06-28T23:23:05.784Z,101345.14
2018-06-28T23:25:10.958Z,101348.29
2018-06-28T23:27:15.723Z,101344.50
2018-06-28T23:29:20.628Z,101343.00
2018-06-28T23:31:25.503Z,101345.94
2018-06-28T23:33:30.482Z,101321.06
2018-06-28T23:35:35.253Z,101354.34
2018-06-28T23:37:40.188Z,101348.63
2018-06-28T23:39:44.990Z,101349.42
2018-06-28T23:41:49.730Z,101346.23
2018-06-28T23:43:54.423Z,101347.91
2018-06-28T23:45:59.197Z,101347.97
2018-06-28T23:48:03.985Z,101349.13
2018-06-28T23:50:09.914Z,101347.88
2018-06-28T23:52:14.789Z,101348.45
2018-06-28T23:54:19.643Z,101325.80
2018-06-28T23:56:24.491Z,101344.88
2018-06-28T23:58:29.297Z,101343.02
